Time;durP1;ratioP1;P1;durP2;ratioP2;P2;SDS_P1;SDS_P2;PMS_P1;PMS_P2;Temp;Humidity;BMP_temperature;BMP_pressure;BME280_temperature;BME280_humidity;BME280_pressure;Samples;Min_cycle;Max_cycle;Signal;HPM_P1;HPM_P2
2022/04/26 03:37:20;;;;;;;;;33.75;32.75;;;;;10.03;69.19;101354.63;5081702;28;45431;-70
2022/04/26 03:39:46;;;;;;;;;39.00;34.75;;;;;9.96;69.45;101350.72;5073377;27;45712;-70
2022/04/26 03:42:12;;;;;;;;;45.25;36.25;;;;;9.97;69.43;101357.88;5076765;28;45465;-70
2022/04/26 03:44:38;;;;;;;;;44.75;37.25;;;;;10.02;69.60;101363.75;5083469;28;45469;-69
2022/04/26 03:47:04;;;;;;;;;38.00;34.75;;;;;10.04;69.09;101355.50;5082496;27;45406;-69
2022/04/26 03:49:29;;;;;;;;;52.25;39.25;;;;;9.99;69.49;101363.19;5071635;28;46883;-69
2022/04/26 03:51:54;;;;;;;;;44.50;39.50;;;;;9.95;69.53;101350.84;5075427;28;45377;-69
2022/04/26 03:54:21;;;;;;;;;39.75;36.25;;;;;10.05;68.92;101357.22;5070203;28;45329;-69
2022/04/26 03:56:47;;;;;;;;;46.50;37.50;;;;;10.02;68.83;101352.91;5075848;28;45476;-69
2022/04/26 03:59:12;;;;;;;;;40.75;37.00;;;;;10.02;68.74;101361.03;5069091;28;47452;-70
2022/04/26 04:01:38;;;;;;;;;48.00;38.25;;;;;10.04;68.83;101372.66;5075574;28;45286;-69
2022/04/26 04:04:03;;;;;;;;;39.75;34.25;;;;;10.11;68.41;101367.56;5069227;28;45860;-70
2022/04/26 04:06:28;;;;;;;;;44.00;37.50;;;;;10.13;68.25;101371.88;5069948;28;45448;-69
2022/04/26 04:08:54;;;;;;;;;40.25;34.50;;;;;10.19;67.99;101383.22;5078057;28;46994;-69
2022/04/26 04:11:19;;;;;;;;;50.50;42.25;;;;;10.19;68.55;101378.66;5076972;28;45908;-69
2022/04/26 04:13:44;;;;;;;;;49.75;39.25;;;;;10.19;68.33;101370.53;5081395;27;45897;-69
2022/04/26 04:16:10;;;;;;;;;41.50;34.25;;;;;10.22;68.13;101381.13;5076774;27;45302;-70
2022/04/26 04:21:19;;;;;;;;;41.50;34.75;;;;;10.24;67.82;101381.84;5071888;28;45392;-69
2022/04/26 04:23:45;;;;;;;;;47.75;38.25;;;;;10.16;68.76;101382.47;5082505;27;45603;-69
2022/04/26 04:26:10;;;;;;;;;47.00;40.25;;;;;10.03;69.48;101392.63;5083172;27;45384;-69
2022/04/26 04:28:36;;;;;;;;;43.75;37.50;;;;;9.97;70.12;101393.16;5092204;27;45265;-69
2022/04/26 04:31:02;;;;;;;;;48.25;41.00;;;;;9.98;69.87;101389.47;5075529;27;45310;-69
2022/04/26 04:33:28;;;;;;;;;52.00;42.75;;;;;9.95;70.00;101395.13;5072283;28;45281;-70
2022/04/26 04:35:53;;;;;;;;;45.75;39.25;;;;;9.97;69.50;101403.16;5077776;28;45539;-69
2022/04/26 04:38:18;;;;;;;;;52.50;41.50;;;;;9.95;69.82;101405.13;5082086;27;45580;-69
2022/04/26 04:40:44;;;;;;;;;42.00;37.00;;;;;9.91;69.88;101401.81;5071131;27;45378;-69
2022/04/26 04:43:13;;;;;;;;;51.50;41.00;;;;;9.89;69.59;101403.78;5081154;27;45558;-71
2022/04/26 04:45:40;;;;;;;;;55.00;40.50;;;;;9.82;70.32;101409.88;5069417;27;45321;-70
2022/04/26 04:48:06;;;;;;;;;53.00;41.25;;;;;9.79;70.57;101404.72;5082863;27;46609;-69
2022/04/26 04:50:34;;;;;;;;;43.75;34.75;;;;;9.84;70.13;101406.03;5066388;28;45421;-69
2022/04/26 04:53:00;;;;;;;;;48.75;37.00;;;;;9.89;70.09;101419.22;5078592;28;45385;-69
2022/04/26 04:55:26;;;;;;;;;54.00;42.50;;;;;9.86;70.59;101416.78;5069291;27;45492;-68
2022/04/26 04:57:51;;;;;;;;;56.00;44.00;;;;;9.83;70.42;101415.16;5076331;27;46050;-69
2022/04/26 05:00:17;;;;;;;;;53.75;40.00;;;;;9.80;70.87;101419.97;5065090;27;45410;-69
2022/04/26 05:02:42;;;;;;;;;47.25;38.00;;;;;9.84;70.20;101426.88;5080827;28;45962;-68
2022/04/26 05:05:08;;;;;;;;;46.75;37.75;;;;;9.92;70.12;101429.84;5066797;28;45583;-68
2022/04/26 05:07:33;;;;;;;;;43.75;36.25;;;;;9.97;69.84;101420.31;5073400;27;47228;-68
2022/04/26 05:09:59;;;;;;;;;52.75;41.00;;;;;10.07;69.63;101437.56;5066506;28;45187;-68
2022/04/26 05:12:24;;;;;;;;;52.75;41.25;;;;;10.15;69.40;101437.75;5079941;28;45351;-68
2022/04/26 05:14:50;;;;;;;;;59.25;42.75;;;;;10.18;69.68;101443.97;5063557;27;45313;-68
2022/04/26 05:17:15;;;;;;;;;49.50;41.75;;;;;10.26;69.54;101446.91;5079506;28;46594;-69
2022/04/26 05:19:40;;;;;;;;;54.25;43.00;;;;;10.21;69.20;101439.16;5063621;27;45530;-70
2022/04/26 05:22:10;;;;;;;;;53.75;43.00;;;;;10.19;69.59;101457.41;5074653;28;45949;-68
2022/04/26 05:24:56;;;;;;;;;54.00;39.75;;;;;10.29;69.25;101458.38;5061708;28;45319;-68
2022/04/26 05:27:30;;;;;;;;;49.25;41.50;;;;;10.45;68.61;101460.63;5074329;27;45584;-69
2022/04/26 05:29:56;;;;;;;;;50.75;38.25;;;;;10.41;68.57;101457.31;5068589;28;45404;-69
2022/04/26 05:32:23;;;;;;;;;54.25;44.50;;;;;10.58;68.39;101463.19;5079943;28;45468;-69
2022/04/26 05:34:55;;;;;;;;;44.75;38.25;;;;;10.70;67.76;101460.28;5072256;28;45564;-69
2022/04/26 05:37:21;;;;;;;;;54.50;44.75;;;;;10.63;68.01;101460.94;5073205;27;46484;-69
2022/04/26 05:39:46;;;;;;;;;55.25;44.50;;;;;10.67;67.84;101465.09;5076127;27;45353;-70
2022/04/26 05:42:11;;;;;;;;;55.25;43.75;;;;;10.79;67.28;101466.78;5080516;28;45586;-70
2022/04/26 05:44:38;;;;;;;;;57.00;47.00;;;;;10.80;67.64;101479.38;5075833;27;45461;-70
2022/04/26 05:47:08;;;;;;;;;67.00;48.50;;;;;10.70;67.73;101475.72;5078412;28;45408;-70
2022/04/26 05:49:34;;;;;;;;;52.00;42.25;;;;;10.74;67.45;101482.63;5075115;27;45386;-71
2022/04/26 05:51:59;;;;;;;;;54.00;40.00;;;;;10.73;67.55;101472.75;5079155;28;45514;-70
2022/04/26 05:54:25;;;;;;;;;54.00;42.00;;;;;10.76;67.35;101478.78;5075483;28;45358;-70
2022/04/26 05:56:52;;;;;;;;;56.00;44.00;;;;;10.78;67.56;101476.78;5074941;28;45441;-70
2022/04/26 05:59:18;;;;;;;;;57.75;44.75;;;;;10.77;67.72;101485.94;5072049;28;45337;-69
2022/04/26 06:01:44;;;;;;;;;61.25;46.50;;;;;10.85;67.37;101483.41;5074649;28;45417;-69
2022/04/26 06:04:09;;;;;;;;;57.75;45.75;;;;;10.89;67.42;101487.59;5071303;28;45222;-70
2022/04/26 06:06:35;;;;;;;;;55.25;47.25;;;;;11.20;66.85;101483.06;5076337;27;45346;-69
2022/04/26 06:09:01;;;;;;;;;58.00;45.75;;;;;11.39;65.95;101481.47;5069817;28;45429;-69
2022/04/26 06:11:26;;;;;;;;;59.75;47.50;;;;;11.50;65.38;101484.94;5078979;28;45317;-69
2022/04/26 06:13:51;;;;;;;;;60.75;47.75;;;;;11.58;64.85;101476.94;5074871;27;45557;-68
2022/04/26 06:16:17;;;;;;;;;62.00;45.25;;;;;11.61;64.63;101478.56;5077253;28;46545;-68
2022/04/26 06:18:42;;;;;;;;;62.25;47.00;;;;;11.59;64.46;101470.50;5074003;27;45263;-68
2022/04/26 06:21:08;;;;;;;;;56.75;43.75;;;;;11.58;64.69;101481.53;5072611;28;45457;-69
2022/04/26 06:23:33;;;;;;;;;57.50;48.00;;;;;11.43;65.04;101483.75;5084840;27;45400;-68
2022/04/26 06:25:59;;;;;;;;;56.00;45.00;;;;;11.41;66.01;101491.19;5083534;27;45987;-70
2022/04/26 06:28:26;;;;;;;;;62.75;48.25;;;;;11.55;65.49;101482.66;5092888;27;45317;-70
2022/04/26 06:30:51;;;;;;;;;60.25;47.75;;;;;11.53;65.38;101489.25;5076220;27;45330;-70
2022/04/26 06:33:17;;;;;;;;;61.75;49.50;;;;;11.58;65.55;101493.28;5082705;28;45491;-69
2022/04/26 06:35:43;;;;;;;;;64.75;49.25;;;;;11.68;64.76;101494.19;5068569;27;46534;-69
2022/04/26 06:38:09;;;;;;;;;64.75;52.25;;;;;11.61;65.21;101501.19;5084021;27;45603;-69
2022/04/26 06:40:34;;;;;;;;;57.00;46.25;;;;;11.65;65.43;101507.19;5071368;27;45420;-69
2022/04/26 06:43:00;;;;;;;;;69.25;52.75;;;;;11.62;64.92;101507.47;5081900;27;45280;-69
2022/04/26 06:45:25;;;;;;;;;68.00;49.75;;;;;11.71;64.61;101510.22;5067910;27;45438;-70
2022/04/26 06:47:54;;;;;;;;;63.50;51.00;;;;;11.76;64.93;101511.72;5077653;28;45278;-70
2022/04/26 06:50:19;;;;;;;;;72.00;53.25;;;;;11.91;64.16;101510.31;5067488;27;45406;-69
2022/04/26 06:52:45;;;;;;;;;70.25;52.00;;;;;11.81;64.97;101509.44;5071529;27;45309;-69
2022/04/26 06:55:10;;;;;;;;;70.75;53.00;;;;;11.90;64.41;101508.63;5066652;28;46266;-69
2022/04/26 06:57:36;;;;;;;;;57.50;47.25;;;;;12.08;64.27;101512.38;5076737;27;45346;-68
2022/04/26 07:00:04;;;;;;;;;71.50;53.00;;;;;12.18;63.65;101517.88;5078521;27;45321;-70
2022/04/26 07:02:29;;;;;;;;;72.50;52.75;;;;;12.02;63.95;101516.53;5082868;28;45433;-70
2022/04/26 07:04:56;;;;;;;;;66.25;52.00;;;;;11.83;64.24;101513.78;5068900;27;45720;-70
2022/04/26 07:07:22;;;;;;;;;71.25;51.75;;;;;12.03;64.90;101520.13;5071707;28;45851;-70
2022/04/26 07:09:47;;;;;;;;;66.00;50.75;;;;;12.24;64.02;101520.91;5083611;27;45327;-70
2022/04/26 07:12:13;;;;;;;;;71.75;51.25;;;;;12.39;63.39;101516.75;5083095;27;45483;-70
2022/04/26 07:14:38;;;;;;;;;64.00;50.00;;;;;12.19;63.31;101515.00;5083679;27;46179;-70
2022/04/26 07:17:04;;;;;;;;;75.75;55.75;;;;;12.44;62.80;101519.91;5079160;27;45536;-70
2022/04/26 07:19:30;;;;;;;;;72.75;52.25;;;;;12.68;63.14;101529.56;5077898;28;45459;-69
2022/04/26 07:21:55;;;;;;;;;69.25;52.50;;;;;12.89;61.30;101527.53;5077200;28;45405;-68
2022/04/26 07:24:21;;;;;;;;;63.25;49.25;;;;;13.09;61.28;101522.91;5076696;28;47285;-69
2022/04/26 07:26:46;;;;;;;;;64.25;49.25;;;;;13.16;60.45;101524.94;5075839;28;45423;-69
2022/04/26 07:29:15;;;;;;;;;61.00;48.25;;;;;13.15;60.76;101520.50;5090064;27;45409;-69
2022/04/26 07:31:41;;;;;;;;;67.25;51.50;;;;;13.52;60.47;101530.59;5075625;28;45674;-69
2022/04/26 07:34:21;;;;;;;;;63.75;48.50;;;;;13.89;59.64;101527.88;5080187;28;45391;-70
2022/04/26 07:36:53;;;;;;;;;68.50;52.25;;;;;13.93;58.58;101532.91;5074599;28;45355;-70
2022/04/26 07:39:20;;;;;;;;;73.50;53.00;;;;;13.80;58.06;101537.84;5075897;27;45393;-70
2022/04/26 07:41:48;;;;;;;;;63.75;50.75;;;;;13.62;58.81;101537.78;5074877;28;45505;-71
2022/04/26 07:44:14;;;;;;;;;64.25;50.00;;;;;13.42;59.13;101543.44;5076794;27;47733;-70
2022/04/26 07:46:46;;;;;;;;;62.00;51.25;;;;;13.51;58.01;101550.75;5075799;28;45342;-70
2022/04/26 07:49:13;;;;;;;;;63.75;51.00;;;;;13.58;58.39;101554.59;5083007;27;45311;-71
2022/04/26 07:51:38;;;;;;;;;64.25;50.00;;;;;13.50;58.36;101557.22;5082213;27;45635;-68
2022/04/26 07:54:05;;;;;;;;;65.25;49.00;;;;;13.61;58.05;101554.28;5070770;28;46527;-71
2022/04/26 07:56:31;;;;;;;;;64.00;49.00;;;;;13.55;57.94;101571.28;5073917;28;45215;-70
2022/04/26 07:58:58;;;;;;;;;50.75;40.50;;;;;13.74;57.92;101570.34;5069275;28;45469;-71
2022/04/26 08:01:25;;;;;;;;;62.50;47.00;;;;;13.85;57.55;101579.22;5076633;28;47558;-71
2022/04/26 08:03:51;;;;;;;;;62.50;45.75;;;;;13.93;57.06;101573.88;5062976;28;45366;-69
2022/04/26 08:06:16;;;;;;;;;59.00;47.50;;;;;13.94;56.29;101572.88;5075323;28;45547;-68
2022/04/26 08:08:42;;;;;;;;;57.50;45.50;;;;;13.47;56.71;101576.59;5068586;28;45349;-70
2022/04/26 08:11:11;;;;;;;;;57.25;47.00;;;;;13.22;57.84;101586.28;5072356;28;45428;-70
2022/04/26 08:13:37;;;;;;;;;67.00;48.00;;;;;13.07;57.70;101585.84;5081249;28;47995;-70
2022/04/26 08:16:03;;;;;;;;;67.00;49.25;;;;;13.51;56.88;101589.84;5081982;27;45388;-70
2022/04/26 08:18:29;;;;;;;;;61.75;50.25;;;;;13.50;57.25;101589.97;5073802;28;45361;-70
2022/04/26 08:20:55;;;;;;;;;60.25;47.00;;;;;13.68;57.09;101590.06;5069722;28;45418;-70
2022/04/26 08:23:21;;;;;;;;;57.75;44.00;;;;;13.47;56.70;101587.53;5082934;27;45438;-70
2022/04/26 08:28:31;;;;;;;;;64.25;47.25;;;;;13.64;56.15;101598.56;5092663;27;45506;-70
2022/04/26 08:30:57;;;;;;;;;59.75;48.00;;;;;13.56;56.85;101584.78;5074967;27;45483;-70
2022/04/26 08:33:22;;;;;;;;;51.50;33.00;;;;;13.69;56.92;101603.56;5082512;27;46411;-70
2022/04/26 08:35:48;;;;;;;;;47.25;39.00;;;;;13.57;56.08;101602.91;5069650;27;45153;-70
2022/04/26 08:38:14;;;;;;;;;63.75;49.00;;;;;13.44;55.77;101606.94;5074353;28;45208;-70
2022/04/26 08:40:42;;;;;;;;;54.25;44.25;;;;;13.93;55.98;101609.41;5080337;28;45519;-70
2022/04/26 08:43:07;;;;;;;;;61.75;48.75;;;;;14.27;54.99;101608.81;5079916;27;46572;-69
2022/04/26 08:45:38;;;;;;;;;56.00;47.25;;;;;14.30;54.98;101609.38;5068667;27;45338;-70
2022/04/26 08:51:02;;;;;;;;;67.00;48.75;;;;;13.61;55.85;101608.91;5069567;28;45369;-70
2022/04/26 08:53:29;;;;;;;;;64.00;50.75;;;;;13.46;56.25;101618.56;5075836;28;46243;-70
2022/04/26 08:56:03;;;;;;;;;57.75;47.25;;;;;13.56;56.28;101620.28;5068961;28;46021;-70
2022/04/26 08:58:34;;;;;;;;;64.00;49.00;;;;;13.93;55.41;101625.78;5072513;27;45376;-70
2022/04/26 09:01:12;;;;;;;;;54.25;44.00;;;;;14.43;55.07;101624.59;5070063;28;45480;-70
2022/04/26 09:03:56;;;;;;;;;50.75;41.00;;;;;14.66;52.98;101617.69;5068100;28;45416;-70
2022/04/26 09:06:40;;;;;;;;;58.50;46.75;;;;;14.72;53.45;101601.53;5072535;28;46083;-70
2022/04/26 09:09:08;;;;;;;;;66.25;49.75;;;;;14.98;52.85;101611.69;5071294;28;45410;-70
2022/04/26 09:11:35;;;;;;;;;64.25;47.25;;;;;15.03;52.66;101628.53;5078590;28;45343;-70
2022/04/26 09:14:03;;;;;;;;;56.50;46.25;;;;;15.03;51.72;101629.38;5086390;27;45917;-70
2022/04/26 09:16:28;;;;;;;;;57.75;45.50;;;;;14.96;52.19;101636.50;5085349;28;45353;-70
2022/04/26 09:18:57;;;;;;;;;58.25;45.50;;;;;14.33;53.57;101617.25;5080827;28;45417;-70
2022/04/26 09:21:27;;;;;;;;;61.75;49.00;;;;;14.28;53.51;101649.66;5072026;28;45219;-69
2022/04/26 09:23:59;;;;;;;;;60.75;47.00;;;;;14.44;53.75;101650.94;5073371;27;45490;-70
2022/04/26 09:26:38;;;;;;;;;48.00;40.50;;;;;13.98;54.95;101653.53;5076356;28;45323;-70
2022/04/26 09:29:05;;;;;;;;;68.00;51.50;;;;;13.78;55.80;101643.66;5097272;27;45472;-70
2022/04/26 09:31:34;;;;;;;;;70.50;47.75;;;;;13.78;55.17;101660.03;5076315;28;45603;-69
2022/04/26 09:34:10;;;;;;;;;60.25;48.50;;;;;13.91;55.36;101666.03;5083437;27;46332;-70
2022/04/26 09:36:44;;;;;;;;;59.00;46.50;;;;;13.98;55.19;101666.31;5075565;28;45510;-70
2022/04/26 09:39:10;;;;;;;;;62.75;49.25;;;;;14.00;54.85;101658.84;5081095;27;45409;-70
2022/04/26 09:41:37;;;;;;;;;58.25;47.50;;;;;14.01;55.00;101672.34;5073277;28;45488;-70
2022/04/26 09:44:08;;;;;;;;;62.25;48.50;;;;;14.14;54.33;101669.28;5079129;28;46158;-70
2022/04/26 09:46:42;;;;;;;;;54.50;43.75;;;;;14.17;54.38;101676.34;5077468;28;45609;-70
2022/04/26 09:49:09;;;;;;;;;65.75;47.50;;;;;14.16;54.79;101667.28;5075006;27;45416;-71
2022/04/26 09:51:39;;;;;;;;;62.00;48.00;;;;;14.38;54.85;101669.66;5079975;27;45377;-71
2022/04/26 09:54:05;;;;;;;;;55.50;44.75;;;;;14.53;54.07;101678.22;5077677;27;45440;-70
2022/04/26 09:56:32;;;;;;;;;67.75;49.75;;;;;14.58;54.41;101677.75;5075307;28;45676;-71
2022/04/26 09:58:59;;;;;;;;;61.25;48.25;;;;;14.75;53.83;101676.97;5078715;28;45322;-70
2022/04/26 10:01:29;;;;;;;;;61.50;48.00;;;;;14.81;53.10;101670.88;5082601;27;45504;-70
2022/04/26 10:04:03;;;;;;;;;65.75;50.25;;;;;14.75;52.70;101664.16;5071239;28;46577;-71
2022/04/26 10:06:33;;;;;;;;;64.25;46.25;;;;;14.59;53.66;101680.34;5077260;28;45442;-71
2022/04/26 10:08:59;;;;;;;;;57.75;45.25;;;;;14.61;52.82;101682.94;5070055;28;45455;-70
2022/04/26 10:11:25;;;;;;;;;59.00;48.00;;;;;15.01;51.79;101680.69;5076052;28;45431;-71
2022/04/26 10:13:51;;;;;;;;;65.50;49.50;;;;;15.15;51.83;101674.66;5076984;27;47345;-70
2022/04/26 10:16:21;;;;;;;;;61.50;47.00;;;;;15.25;51.28;101685.53;5070097;28;45957;-69
2022/04/26 10:18:48;;;;;;;;;60.50;46.00;;;;;15.31;51.19;101664.88;5084812;28;46219;-69
2022/04/26 10:21:22;;;;;;;;;54.50;44.00;;;;;15.63;50.70;101675.31;5079260;27;45498;-70
2022/04/26 10:23:50;;;;;;;;;61.75;47.25;;;;;15.65;49.40;101676.00;5085320;28;45368;-69
2022/04/26 10:26:25;;;;;;;;;58.00;47.75;;;;;15.82;48.96;101675.97;5085642;27;47436;-69
2022/04/26 10:29:10;;;;;;;;;55.00;44.50;;;;;16.32;48.31;101675.25;5093096;27;45380;-69
2022/04/26 10:31:44;;;;;;;;;55.50;42.25;;;;;16.65;47.40;101671.69;5075409;28;45409;-71
2022/04/26 10:34:24;;;;;;;;;62.50;50.00;;;;;16.84;47.76;101678.78;5080179;27;46552;-71
2022/04/26 10:36:59;;;;;;;;;59.50;47.00;;;;;16.72;47.61;101669.16;5078877;28;45252;-71
2022/04/26 10:39:35;;;;;;;;;60.25;47.00;;;;;16.66;47.44;101678.00;5085321;27;45313;-71
2022/04/26 10:42:21;;;;;;;;;58.00;46.50;;;;;16.16;47.69;101684.25;5076477;28;45519;-70
2022/04/26 10:44:48;;;;;;;;;60.00;47.00;;;;;16.49;47.63;101685.31;5064248;28;45428;-70
2022/04/26 10:47:22;;;;;;;;;55.50;43.00;;;;;16.79;47.18;101683.91;5069823;28;45385;-70
2022/04/26 10:49:49;;;;;;;;;54.50;45.25;;;;;16.76;46.28;101676.00;5077837;27;45402;-70
2022/04/26 10:52:15;;;;;;;;;50.00;41.50;;;;;16.61;45.69;101685.88;5071491;27;45367;-70
2022/04/26 10:57:13;;;;;;;;;59.25;45.00;;;;;16.64;47.16;101688.31;5067352;28;45223;-70
2022/04/26 10:59:42;;;;;;;;;52.75;42.00;;;;;17.09;46.45;101680.56;5071243;28;45480;-71
2022/04/26 11:02:13;;;;;;;;;57.00;46.25;;;;;16.78;46.09;101684.09;5068091;28;45254;-70
2022/04/26 11:04:38;;;;;;;;;57.75;43.75;;;;;16.59;46.59;101682.41;5073310;28;45421;-71
2022/04/26 11:07:18;;;;;;;;;71.75;55.50;;;;;16.39;46.67;101680.94;5066505;28;45382;-70
2022/04/26 11:09:44;;;;;;;;;56.25;42.75;;;;;16.18;47.75;101678.59;5064362;28;45275;-70
2022/04/26 11:12:09;;;;;;;;;55.50;42.25;;;;;16.49;47.79;101678.94;5076721;28;45402;-70
2022/04/26 11:14:42;;;;;;;;;56.25;45.50;;;;;16.76;47.28;101678.75;5065933;27;46679;-68
2022/04/26 11:17:07;;;;;;;;;48.25;38.50;;;;;16.85;47.36;101683.25;5079684;28;44792;-69
2022/04/26 11:19:36;;;;;;;;;57.00;44.50;;;;;16.81;47.67;101668.13;5067494;27;45642;-71
2022/04/26 11:22:05;;;;;;;;;51.75;42.00;;;;;17.13;46.20;101675.59;5073989;28;45408;-70
2022/04/26 11:29:59;;;;;;;;;50.25;39.00;;;;;17.89;44.73;101683.59;5063284;28;45480;-70
2022/04/26 11:32:27;;;;;;;;;51.50;41.75;;;;;17.92;44.49;101680.47;5071563;28;45412;-70
2022/04/26 11:34:53;;;;;;;;;52.25;40.75;;;;;17.71;44.15;101674.66;5075709;27;45355;-69
2022/04/26 11:37:18;;;;;;;;;52.75;43.25;;;;;17.99;44.62;101675.13;5079673;28;45227;-70
2022/04/26 11:39:44;;;;;;;;;49.75;42.00;;;;;17.97;43.66;101663.47;5062693;28;45329;-70
2022/04/26 11:42:11;;;;;;;;;45.75;38.75;;;;;17.97;44.82;101668.97;5071417;28;45491;-70
2022/04/26 11:44:37;;;;;;;;;53.00;42.50;;;;;17.93;44.30;101678.56;5074183;28;45378;-70
2022/04/26 11:47:02;;;;;;;;;47.25;38.50;;;;;17.95;44.47;101676.53;5065554;28;45306;-71
2022/04/26 11:49:38;;;;;;;;;50.25;40.00;;;;;18.00;43.69;101685.09;5072542;28;45390;-71
2022/04/26 11:52:04;;;;;;;;;48.00;37.25;;;;;18.29;44.02;101671.63;5070180;28;45338;-71
2022/04/26 11:54:38;;;;;;;;;48.75;38.75;;;;;18.43;42.96;101679.16;5071764;28;47802;-71
2022/04/26 11:57:04;;;;;;;;;41.50;36.50;;;;;18.52;43.16;101678.09;5067910;28;45512;-70
2022/04/26 11:59:32;;;;;;;;;47.25;35.25;;;;;18.18;43.06;101670.13;5069913;28;45314;-71
2022/04/26 12:01:57;;;;;;;;;48.50;37.00;;;;;17.71;43.26;101677.41;5067362;28;45335;-71
2022/04/26 12:04:23;;;;;;;;;40.25;33.25;;;;;17.76;43.89;101675.84;5070779;28;45351;-70
2022/04/26 12:06:50;;;;;;;;;50.25;41.75;;;;;16.93;45.78;101674.19;5072062;27;45417;-70
2022/04/26 12:09:16;;;;;;;;;42.50;34.50;;;;;16.80;45.83;101680.16;5067105;27;45269;-70
2022/04/26 12:11:44;;;;;;;;;43.75;34.75;;;;;16.82;46.17;101683.56;5070489;28;45478;-70
2022/04/26 12:14:16;;;;;;;;;40.50;35.00;;;;;17.31;45.37;101679.06;5079846;27;46489;-70
2022/04/26 12:16:49;;;;;;;;;49.25;40.00;;;;;17.40;44.97;101685.41;5065137;28;45572;-70
2022/04/26 12:19:15;;;;;;;;;49.75;40.50;;;;;17.36;44.84;101686.78;5081122;27;45257;-70
2022/04/26 12:21:52;;;;;;;;;41.50;34.50;;;;;17.89;44.73;101681.69;5070109;28;45410;-70
2022/04/26 12:24:27;;;;;;;;;37.50;31.25;;;;;17.92;42.96;101687.84;5068238;27;45351;-70
2022/04/26 12:26:56;;;;;;;;;44.50;36.25;;;;;18.01;43.15;101695.06;5075346;27;45386;-69
2022/04/26 12:29:41;;;;;;;;;39.75;33.75;;;;;18.29;42.61;101685.38;5087008;27;45372;-70
2022/04/26 12:32:11;;;;;;;;;42.00;35.25;;;;;18.56;42.05;101687.72;5068756;27;45554;-70
2022/04/26 12:34:50;;;;;;;;;40.75;32.75;;;;;19.03;42.19;101678.56;5074939;28;46410;-69
2022/04/26 12:37:23;;;;;;;;;40.75;34.25;;;;;19.56;40.80;101672.22;5071832;28;45379;-70
2022/04/26 12:39:52;;;;;;;;;38.50;31.50;;;;;20.08;39.27;101661.22;5071771;27;45329;-70
2022/04/26 12:42:27;;;;;;;;;31.00;30.00;;;;;20.44;38.18;101663.25;5067568;28;45247;-70
2022/04/26 12:44:53;;;;;;;;;42.50;36.25;;;;;20.39;37.50;101662.97;5078040;28;48174;-70
2022/04/26 12:50:36;;;;;;;;;37.75;33.75;;;;;20.00;37.54;101655.78;5068032;28;45311;-70
2022/04/26 12:53:19;;;;;;;;;32.75;32.25;;;;;19.57;38.94;101653.78;5074194;28;45502;-70
2022/04/26 12:55:45;;;;;;;;;36.50;32.00;;;;;19.34;39.36;101654.59;5078580;28;48284;-70
2022/04/26 12:58:18;;;;;;;;;27.25;27.00;;;;;19.26;39.08;101653.81;5076213;27;45533;-70
2022/04/26 13:00:45;;;;;;;;;30.00;27.50;;;;;19.71;38.92;101645.53;5067620;28;47812;-70
2022/04/26 13:03:13;;;;;;;;;34.50;31.50;;;;;20.40;38.18;101656.38;5067885;28;45219;-70
2022/04/26 13:05:44;;;;;;;;;32.50;30.00;;;;;20.56;37.21;101650.69;5076087;28;46544;-70
2022/04/26 13:08:11;;;;;;;;;27.75;25.00;;;;;20.39;36.23;101649.16;5070389;28;45385;-70
2022/04/26 13:10:36;;;;;;;;;34.75;30.25;;;;;20.16;37.36;101643.72;5064819;28;45405;-70
2022/04/26 13:13:03;;;;;;;;;35.75;31.75;;;;;20.08;37.79;101647.41;5072245;27;45529;-70
2022/04/26 13:15:28;;;;;;;;;33.00;31.25;;;;;20.30;37.02;101645.63;5063523;28;45650;-69
2022/04/26 13:17:54;;;;;;;;;31.75;30.00;;;;;20.29;37.54;101648.56;5075354;28;45299;-71
2022/04/26 13:20:20;;;;;;;;;39.25;33.25;;;;;20.23;37.35;101641.06;5062650;28;45314;-70
2022/04/26 13:22:45;;;;;;;;;32.75;31.00;;;;;19.53;38.05;101644.16;5074074;28;45423;-69
2022/04/26 13:25:11;;;;;;;;;28.75;28.75;;;;;19.71;38.53;101630.91;5062073;28;45656;-68
2022/04/26 13:27:39;;;;;;;;;31.75;27.50;;;;;20.13;38.24;101644.94;5073695;27;45313;-70
2022/04/26 13:30:07;;;;;;;;;31.00;28.00;;;;;20.23;38.15;101638.28;5083087;27;45386;-69
2022/04/26 13:32:32;;;;;;;;;30.00;29.00;;;;;20.28;36.99;101633.06;5070177;28;45456;-70
2022/04/26 13:34:59;;;;;;;;;40.00;32.50;;;;;19.91;37.78;101632.06;5070650;28;47925;-70
2022/04/26 13:37:25;;;;;;;;;37.75;32.00;;;;;20.00;37.74;101633.72;5069447;28;45421;-70
2022/04/26 13:39:51;;;;;;;;;32.75;30.25;;;;;19.62;37.88;101630.13;5070951;28;45579;-69
2022/04/26 13:42:19;;;;;;;;;29.50;26.00;;;;;19.29;38.95;101629.47;5074881;28;45581;-70
2022/04/26 13:44:45;;;;;;;;;26.00;24.25;;;;;19.40;38.45;101631.81;5061009;28;47601;-69
2022/04/26 13:47:11;;;;;;;;;28.75;26.50;;;;;19.73;38.49;101629.66;5069070;28;45375;-71
2022/04/26 13:49:37;;;;;;;;;34.75;30.00;;;;;19.68;37.67;101626.59;5071098;28;45388;-70
2022/04/26 13:52:04;;;;;;;;;27.25;26.75;;;;;19.14;38.51;101623.03;5068072;28;45392;-70
2022/04/26 13:54:29;;;;;;;;;31.50;30.00;;;;;19.41;38.59;101619.75;5072680;28;45471;-70
2022/04/26 13:56:55;;;;;;;;;27.75;25.25;;;;;19.71;37.84;101617.13;5069082;28;45325;-70
2022/04/26 13:59:22;;;;;;;;;35.25;29.00;;;;;19.69;37.14;101611.78;5072056;28;45408;-70
2022/04/26 14:01:49;;;;;;;;;29.00;28.25;;;;;19.83;37.89;101619.22;5068580;28;45263;-70
2022/04/26 14:04:15;;;;;;;;;31.25;28.50;;;;;19.39;38.44;101613.56;5070937;28;45524;-71
2022/04/26 14:06:40;;;;;;;;;29.00;25.75;;;;;19.34;38.94;101616.03;5071909;28;45566;-69
2022/04/26 14:09:05;;;;;;;;;34.75;32.00;;;;;19.16;39.52;101604.44;5064378;28;45351;-70
2022/04/26 14:11:31;;;;;;;;;30.50;26.00;;;;;19.51;39.13;101618.66;5076938;28;45532;-70
2022/04/26 14:22:08;;;;;;;;;32.25;29.75;;;;;18.79;40.38;101609.84;5068581;28;45430;-70
2022/04/26 14:24:34;;;;;;;;;33.75;29.50;;;;;18.82;39.90;101615.00;5077357;28;45436;-70
2022/04/26 14:26:59;;;;;;;;;30.25;28.00;;;;;19.13;39.90;101607.59;5075903;27;45361;-70
2022/04/26 14:29:25;;;;;;;;;29.25;28.00;;;;;19.49;38.15;101601.47;5090213;27;45674;-70
2022/04/26 14:31:51;;;;;;;;;20.75;20.75;;;;;19.62;37.80;101602.53;5074760;28;45526;-71
2022/04/26 14:34:17;;;;;;;;;27.25;27.25;;;;;19.44;37.62;101605.59;5079435;28;48356;-70
2022/04/26 14:36:42;;;;;;;;;19.50;19.25;;;;;19.10;38.49;101607.94;5069012;28;45243;-70
2022/04/26 14:39:07;;;;;;;;;23.00;22.00;;;;;18.92;38.43;101616.47;5074248;28;45255;-70
2022/04/26 14:41:34;;;;;;;;;20.75;20.75;;;;;19.14;38.21;101609.28;5070598;28;45579;-70
2022/04/26 14:44:00;;;;;;;;;16.00;16.00;;;;;19.38;38.41;101605.47;5075855;27;46203;-70
2022/04/26 14:46:28;;;;;;;;;23.50;21.50;;;;;19.88;37.53;101602.09;5068570;28;45541;-70
2022/04/26 14:48:54;;;;;;;;;25.25;21.00;;;;;20.84;35.95;101592.81;5075099;27;45321;-70
2022/04/26 14:51:19;;;;;;;;;23.00;21.25;;;;;21.12;35.01;101596.53;5068758;28;45474;-71
2022/04/26 14:53:45;;;;;;;;;19.33;19.00;;;;;21.16;33.14;101602.53;5073294;27;45293;-70
2022/04/26 14:56:10;;;;;;;;;22.67;19.33;;;;;21.23;33.58;101601.56;5066875;28;45472;-71
2022/04/26 14:58:36;;;;;;;;;18.67;17.33;;;;;21.31;33.58;101586.75;5071897;28;45391;-71
2022/04/26 15:01:02;;;;;;;;;16.67;16.67;;;;;21.53;32.31;101604.19;5067091;28;45244;-71
2022/04/26 15:03:27;;;;;;;;;17.67;17.00;;;;;21.94;32.46;101596.00;5069753;28;45341;-72
2022/04/26 15:05:54;;;;;;;;;18.67;17.33;;;;;22.18;30.70;101601.09;5069261;28;45364;-71
2022/04/26 15:11:04;;;;;;;;;13.33;13.00;;;;;22.84;29.11;101604.19;5067077;28;45383;-71
2022/04/26 15:18:57;;;;;;;;;13.67;13.67;;;;;22.56;30.68;101600.66;5067808;28;45397;-70
2022/04/26 15:21:24;;;;;;;;;21.00;15.33;;;;;22.50;30.09;101600.38;5067942;28;45298;-70
2022/04/26 15:23:50;;;;;;;;;16.33;15.00;;;;;22.41;30.74;101607.19;5071779;27;46896;-70